El-djazair II — 7TBR — position and weather

sailwx.info

Track history (hours):
 
Tides and Currents Weather Stations Pressure Air Temp Water Temp Dewpoint Dewpoint Depression Visibility Wind Speed Wind Dir Waves Ship Positions

El-djazair II

Last reported at 2017-Nov-17 05:40 UTC. Time now 2017-Nov-20 07:53 UTC.
Position N 38°11' W 000°21'.

Length 146 m; draft 6.3 m.

Type: Passenger vessel. MMSI: 605026190.

Date/timePositionNaut miles runAvg speedWind from/ knotsBaromVisibWave heightAir tempDewpointWater temp
2017-Nov-17 05:40N 38°11' W 000°21'314.0
2017-Nov-17 05:26N 38°07' W 000°21'613.8
2017-Nov-17 04:59N 38°01' W 000°21'713.6
2017-Nov-17 04:29N 37°54' W 000°22'713.6
2017-Nov-17 04:00N 37°48' W 000°23'713.7
2017-Nov-17 03:30N 37°41' W 000°24'714.3
2017-Nov-17 03:00N 37°34' W 000°25'715.0
2017-Nov-17 02:30N 37°26' W 000°26'  
2017-Nov-14 10:07N 41°13' E 002°04'222.6
2017-Nov-14 10:01N 41°12' E 002°01'1122.4
2017-Nov-14 09:31N 41°05' E 001°49'132 3.8
2017-Nov-12 22:40N 39°04' E 002°59'47 2.4
2017-Nov-12 03:28N 39°50' E 003°08'2 4.5
2017-Nov-12 03:00N 39°48' E 003°10'0 0.7
2017-Nov-12 02:30N 39°49' E 003°10'22716.2
2017-Nov-11 12:30N 43°15' E 005°18'4 7.4
2017-Nov-11 11:55N 43°18' E 005°22'0 0.0
2017-Nov-11 10:43N 43°18' E 005°22'0 0.0
2017-Nov-11 10:13N 43°18' E 005°22'0 0.0
2017-Nov-11 09:55N 43°18' E 005°22'0 0.0
2017-Nov-11 09:28N 43°18' E 005°22'0 0.0
2017-Nov-11 08:55N 43°18' E 005°22'0 0.0
2017-Nov-11 08:28N 43°18' E 005°22'0 0.0
2017-Nov-11 07:52N 43°18' E 005°22'0 0.0
2017-Nov-11 07:19N 43°18' E 005°22'0 0.0
2017-Nov-11 06:58N 43°18' E 005°22'0 0.0
2017-Nov-11 06:28N 43°18' E 005°22'0 0.0
2017-Nov-11 05:55N 43°18' E 005°22'0 0.0
2017-Nov-11 05:28N 43°18' E 005°22'0 0.0
2017-Nov-11 04:58N 43°18' E 005°22'0 0.0
2017-Nov-11 04:25N 43°18' E 005°22'0 0.0
2017-Nov-11 03:55N 43°18' E 005°22'0 0.0
2017-Nov-11 03:28N 43°18' E 005°22'0 0.0
2017-Nov-11 02:58N 43°18' E 005°22'0 0.0
2017-Nov-11 02:28N 43°18' E 005°22'0 0.0
2017-Nov-11 01:55N 43°18' E 005°22'0 0.0
2017-Nov-11 01:22N 43°18' E 005°22'0 0.0
2017-Nov-11 00:58N 43°18' E 005°22'0 0.0
2017-Nov-11 00:28N 43°18' E 005°22'0 0.0
2017-Nov-10 23:58N 43°18' E 005°22'0 0.0
2017-Nov-10 23:25N 43°18' E 005°22'0 0.0
2017-Nov-10 22:58N 43°18' E 005°22'0 0.0
2017-Nov-10 22:25N 43°18' E 005°22'0 0.0
2017-Nov-10 21:55N 43°18' E 005°22'0 0.0
2017-Nov-10 21:19N 43°18' E 005°22'0 0.0
2017-Nov-10 20:55N 43°18' E 005°22'0 0.0
2017-Nov-10 20:16N 43°18' E 005°22'0 0.0
2017-Nov-10 19:55N 43°18' E 005°22'0 0.0
2017-Nov-10 19:19N 43°18' E 005°22'0 0.0
2017-Nov-10 18:49N 43°18' E 005°22'0 0.0
2017-Nov-10 18:28N 43°18' E 005°22'0 0.0
2017-Nov-10 17:52N 43°18' E 005°22'0 0.0
2017-Nov-10 17:28N 43°18' E 005°22'0 0.0
2017-Nov-10 16:55N 43°18' E 005°22'0 0.0
2017-Nov-10 16:10N 43°18' E 005°22'0 0.0
2017-Nov-10 15:46N 43°18' E 005°22'0 0.0
2017-Nov-10 15:28N 43°18' E 005°22'0 0.0
2017-Nov-10 15:01N 43°18' E 005°22'0 0.0
2017-Nov-10 14:31N 43°18' E 005°22'0 0.0
2017-Nov-10 14:00N 43°18' E 005°22'0 0.0
2017-Nov-10 13:30N 43°18' E 005°22'0 0.0
2017-Nov-10 13:00N 43°18' E 005°22'0 0.0
2017-Nov-10 12:27N 43°18' E 005°22'0 0.0
2017-Nov-10 11:57N 43°18' E 005°22'0 0.0
2017-Nov-10 11:27N 43°18' E 005°22'0 0.0
2017-Nov-10 10:51N 43°18' E 005°22'0 0.0
2017-Nov-10 10:24N 43°18' E 005°22'0 0.0
2017-Nov-10 09:57N 43°18' E 005°22'0 0.0
2017-Nov-10 09:27N 43°18' E 005°22'0 0.0
2017-Nov-10 08:54N 43°18' E 005°22'0 0.0
2017-Nov-10 08:30N 43°18' E 005°22'0 0.0
2017-Nov-10 08:00N 43°18' E 005°22'0 0.0
2017-Nov-10 07:30N 43°18' E 005°22'0 0.0
2017-Nov-10 07:00N 43°18' E 005°22'0 0.0
2017-Nov-10 06:30N 43°18' E 005°22'0 0.0
2017-Nov-10 06:00N 43°18' E 005°22'0 0.0
2017-Nov-10 05:24N 43°18' E 005°22'0 0.0
2017-Nov-10 05:00N 43°18' E 005°22'0 0.0
2017-Nov-10 04:27N 43°18' E 005°22'0 0.0
2017-Nov-10 04:00N 43°18' E 005°22'0 0.0
2017-Nov-10 03:30N 43°18' E 005°22'0 0.0
2017-Nov-10 02:57N 43°18' E 005°22'0 0.0
2017-Nov-10 02:24N 43°18' E 005°22'0 0.0
2017-Nov-10 02:00N 43°18' E 005°22'0 0.0
2017-Nov-10 01:24N 43°18' E 005°22'0 0.0
2017-Nov-10 00:57N 43°18' E 005°22'0 0.0
2017-Nov-10 00:30N 43°18' E 005°22'0 0.0
2017-Nov-09 23:48N 43°18' E 005°22'0 0.0
2017-Nov-09 23:30N 43°18' E 005°22'0 0.0
2017-Nov-09 23:00N 43°18' E 005°22'0 0.0
2017-Nov-09 22:30N 43°18' E 005°22'0 0.0
2017-Nov-09 22:00N 43°18' E 005°22'0 0.0
2017-Nov-09 21:30N 43°18' E 005°22'0 0.0
2017-Nov-09 21:00N 43°18' E 005°22'0 0.0
2017-Nov-09 20:27N 43°18' E 005°22'0 0.0
2017-Nov-09 20:00N 43°18' E 005°22'0 0.0
2017-Nov-09 19:30N 43°18' E 005°22'0 0.0
2017-Nov-09 19:00N 43°18' E 005°22'0 0.0
2017-Nov-09 18:30N 43°18' E 005°22'0 0.0
2017-Nov-09 17:48N 43°18' E 005°22'0 0.0
2017-Nov-09 17:30N 43°18' E 005°22'0 0.0
2017-Nov-09 16:57N 43°18' E 005°22'0 0.0
2017-Nov-09 16:30N 43°18' E 005°22'0 0.0
2017-Nov-09 16:00N 43°18' E 005°22'0 0.0
2017-Nov-09 15:24N 43°18' E 005°22'0 0.0
2017-Nov-09 14:54N 43°18' E 005°22'0 0.0
2017-Nov-09 14:27N 43°18' E 005°22'0 0.0
2017-Nov-09 14:00N 43°18' E 005°22'0 0.0
2017-Nov-09 13:27N 43°18' E 005°22'0 0.0
2017-Nov-09 12:48N 43°18' E 005°22'0 0.0
2017-Nov-09 12:24N 43°18' E 005°22'0 0.0
2017-Nov-09 11:57N 43°18' E 005°22'0 0.0
2017-Nov-09 11:30N 43°18' E 005°22'0 0.0
2017-Nov-09 11:00N 43°18' E 005°22'0 0.0
2017-Nov-09 10:30N 43°18' E 005°22'0 0.0
2017-Nov-09 10:00N 43°18' E 005°22'0 0.0
2017-Nov-09 09:24N 43°18' E 005°22'0 0.0
2017-Nov-09 09:00N 43°18' E 005°22'0 0.0
2017-Nov-09 08:30N 43°18' E 005°22'0 0.0
2017-Nov-09 08:00N 43°18' E 005°22'0 0.0
2017-Nov-09 07:24N 43°18' E 005°22'0 0.0
2017-Nov-09 07:00N 43°18' E 005°22'0 0.0
2017-Nov-09 06:27N 43°18' E 005°22'0 0.0
2017-Nov-09 06:00N 43°18' E 005°22'0 0.0
2017-Nov-09 05:30N 43°18' E 005°22'0 0.0
2017-Nov-09 05:00N 43°18' E 005°22'0 0.0
2017-Nov-09 04:21N 43°18' E 005°22'0 0.0
2017-Nov-09 03:59N 43°18' E 005°22'0 0.0
2017-Nov-09 03:29N 43°18' E 005°22'0 0.0
2017-Nov-09 02:56N 43°18' E 005°22'0 0.0
2017-Nov-09 02:29N 43°18' E 005°22'0 0.0
2017-Nov-09 01:59N 43°18' E 005°22'0 0.0
2017-Nov-09 01:29N 43°18' E 005°22'0 0.0
2017-Nov-09 00:59N 43°18' E 005°22'0 0.0
2017-Nov-09 00:17N 43°18' E 005°22'0 0.0
2017-Nov-08 23:59N 43°18' E 005°22'0 0.0
2017-Nov-08 23:23N 43°18' E 005°22'0 0.0
2017-Nov-08 22:56N 43°18' E 005°22'0 0.0
2017-Nov-08 22:29N 43°18' E 005°22'0 0.0
2017-Nov-08 21:56N 43°18' E 005°22'0 0.0
2017-Nov-08 21:29N 43°18' E 005°22'0 0.0
2017-Nov-08 20:59N 43°18' E 005°22'0 0.0
2017-Nov-08 20:26N 43°18' E 005°22'0 0.0
2017-Nov-08 19:59N 43°18' E 005°22'0 0.0
2017-Nov-08 19:29N 43°18' E 005°22'0 0.0
2017-Nov-08 18:59N 43°18' E 005°22'0 0.0
2017-Nov-08 18:29N 43°18' E 005°22'0 0.0
2017-Nov-08 17:53N 43°18' E 005°22'0 0.0
2017-Nov-08 17:29N 43°18' E 005°22'0 0.0
2017-Nov-08 16:59N 43°18' E 005°22'0 0.0
2017-Nov-08 16:20N 43°18' E 005°22'0 0.0
2017-Nov-08 15:59N 43°18' E 005°22'0 0.0
2017-Nov-08 15:29N 43°18' E 005°22'0 0.0
2017-Nov-08 14:59N 43°18' E 005°22'0 0.0
2017-Nov-08 14:26N 43°18' E 005°22'0 0.0
2017-Nov-08 13:56N 43°18' E 005°22'0 0.0
2017-Nov-08 13:29N 43°18' E 005°22'0 0.0
2017-Nov-08 12:59N 43°18' E 005°22'0 0.0
2017-Nov-08 12:26N 43°18' E 005°22'0 0.0
2017-Nov-08 11:59N 43°18' E 005°22'0 0.0
2017-Nov-08 11:29N 43°18' E 005°22'0 0.0
2017-Nov-08 10:59N 43°18' E 005°22'0 0.0
2017-Nov-08 10:29N 43°18' E 005°22'0 0.0
2017-Nov-08 09:59N 43°18' E 005°22'0 0.0
2017-Nov-08 09:29N 43°18' E 005°22'0 0.0
2017-Nov-08 08:05N 43°18' E 005°22'0 0.0
2017-Nov-08 07:59N 43°18' E 005°22'0 0.0
2017-Nov-08 07:29N 43°18' E 005°22'0 0.0
2017-Nov-08 06:59N 43°18' E 005°22'0 0.0
2017-Nov-08 06:29N 43°18' E 005°22'0 0.0
2017-Nov-08 05:59N 43°18' E 005°22'0 0.0
2017-Nov-08 05:29N 43°18' E 005°22'0 0.0
2017-Nov-08 04:53N 43°18' E 005°22'0 0.0
2017-Nov-08 04:29N 43°18' E 005°22'0 0.0
2017-Nov-08 03:59N 43°18' E 005°22'0 0.0
2017-Nov-08 03:29N 43°18' E 005°22'0 0.0
2017-Nov-08 02:59N 43°18' E 005°22'0 0.0
2017-Nov-08 02:29N 43°18' E 005°22'0 0.0
2017-Nov-08 01:59N 43°18' E 005°22'0 0.0
2017-Nov-08 01:23N 43°18' E 005°22'0 0.0
2017-Nov-08 00:53N 43°18' E 005°22'0 0.0
2017-Nov-08 00:23N 43°18' E 005°22'0 0.0
2017-Nov-07 23:59N 43°18' E 005°22'0 0.0
2017-Nov-07 23:29N 43°18' E 005°22'0 0.0
2017-Nov-07 22:53N 43°18' E 005°22'0 0.0
2017-Nov-07 22:29N 43°18' E 005°22'0 0.0
2017-Nov-07 21:53N 43°18' E 005°22'0 0.0
2017-Nov-07 21:05N 43°18' E 005°22'0 0.0
2017-Nov-07 20:59N 43°18' E 005°22'0 0.0
2017-Nov-07 20:29N 43°18' E 005°22'0 0.0
2017-Nov-07 19:59N 43°18' E 005°22'0 0.0
2017-Nov-07 19:29N 43°18' E 005°22'0 0.0
2017-Nov-07 18:59N 43°18' E 005°22'0 0.0
2017-Nov-07 18:29N 43°18' E 005°22'0 0.0
2017-Nov-07 17:58N 43°18' E 005°22'0 0.0
2017-Nov-07 17:28N 43°18' E 005°22'0 0.0
2017-Nov-07 16:58N 43°18' E 005°22'0 0.0
2017-Nov-07 16:28N 43°18' E 005°22'0 0.0
2017-Nov-07 15:52N 43°18' E 005°22'0 0.0
2017-Nov-07 15:22N 43°18' E 005°22'0 0.0
2017-Nov-07 14:58N 43°18' E 005°22'0 0.0
2017-Nov-07 14:22N 43°18' E 005°22'0 0.0
2017-Nov-07 13:46N 43°18' E 005°22'0 0.0
2017-Nov-07 13:16N 43°18' E 005°22'0 0.0
2017-Nov-07 12:52N 43°18' E 005°22'0 0.0
2017-Nov-07 12:28N 43°18' E 005°22'0 0.0
2017-Nov-07 11:49N 43°18' E 005°22'0 0.0
2017-Nov-07 11:22N 43°18' E 005°22'0 0.0
2017-Nov-07 10:58N 43°18' E 005°22'0 0.0
2017-Nov-07 10:28N 43°18' E 005°22'0 0.0
2017-Nov-07 09:52N 43°18' E 005°22'0 0.0
2017-Nov-07 09:16N 43°18' E 005°22'0 0.0
2017-Nov-07 08:58N 43°18' E 005°22'0 0.0
2017-Nov-07 08:25N 43°18' E 005°22'0 0.0
2017-Nov-07 07:55N 43°18' E 005°22'0 0.0
2017-Nov-07 07:28N 43°18' E 005°22'0 0.0
2017-Nov-07 06:55N 43°18' E 005°22'0 0.0
2017-Nov-07 06:28N 43°18' E 005°22'0 0.0
2017-Nov-07 05:58N 43°18' E 005°22'  
Track history (hours):
 
Tides and Currents Weather Stations Pressure Air Temp Water Temp Dewpoint Dewpoint Depression Visibility Wind Speed Wind Dir Waves Ship Positions

El-djazair II

Last reported at 2017-Nov-17 05:40 UTC. Time now 2017-Nov-20 07:53 UTC.
Position N 38°11' W 000°21'.

Length 146 m; draft 6.3 m.

Type: Passenger vessel. MMSI: 605026190.

Date/timePositionNaut miles runAvg speedWind from/ knotsBaromVisibWave heightAir tempDewpointWater temp
2017-Nov-17 05:40N 38°11' W 000°21'314.0
2017-Nov-17 05:26N 38°07' W 000°21'613.8
2017-Nov-17 04:59N 38°01' W 000°21'713.6
2017-Nov-17 04:29N 37°54' W 000°22'713.6
2017-Nov-17 04:00N 37°48' W 000°23'713.7
2017-Nov-17 03:30N 37°41' W 000°24'714.3
2017-Nov-17 03:00N 37°34' W 000°25'715.0
2017-Nov-17 02:30N 37°26' W 000°26'  
2017-Nov-14 10:07N 41°13' E 002°04'222.6
2017-Nov-14 10:01N 41°12' E 002°01'1122.4
2017-Nov-14 09:31N 41°05' E 001°49'132 3.8
2017-Nov-12 22:40N 39°04' E 002°59'47 2.4
2017-Nov-12 03:28N 39°50' E 003°08'2 4.5
2017-Nov-12 03:00N 39°48' E 003°10'0 0.7
2017-Nov-12 02:30N 39°49' E 003°10'22716.2
2017-Nov-11 12:30N 43°15' E 005°18'4 7.4
2017-Nov-11 11:55N 43°18' E 005°22'0 0.0
2017-Nov-11 10:43N 43°18' E 005°22'0 0.0
2017-Nov-11 10:13N 43°18' E 005°22'0 0.0
2017-Nov-11 09:55N 43°18' E 005°22'0 0.0
2017-Nov-11 09:28N 43°18' E 005°22'0 0.0
2017-Nov-11 08:55N 43°18' E 005°22'0 0.0
2017-Nov-11 08:28N 43°18' E 005°22'0 0.0
2017-Nov-11 07:52N 43°18' E 005°22'0 0.0
2017-Nov-11 07:19N 43°18' E 005°22'0 0.0
2017-Nov-11 06:58N 43°18' E 005°22'0 0.0
2017-Nov-11 06:28N 43°18' E 005°22'0 0.0
2017-Nov-11 05:55N 43°18' E 005°22'0 0.0
2017-Nov-11 05:28N 43°18' E 005°22'0 0.0
2017-Nov-11 04:58N 43°18' E 005°22'0 0.0
2017-Nov-11 04:25N 43°18' E 005°22'0 0.0
2017-Nov-11 03:55N 43°18' E 005°22'0 0.0
2017-Nov-11 03:28N 43°18' E 005°22'0 0.0
2017-Nov-11 02:58N 43°18' E 005°22'0 0.0
2017-Nov-11 02:28N 43°18' E 005°22'0 0.0
2017-Nov-11 01:55N 43°18' E 005°22'0 0.0
2017-Nov-11 01:22N 43°18' E 005°22'0 0.0
2017-Nov-11 00:58N 43°18' E 005°22'0 0.0
2017-Nov-11 00:28N 43°18' E 005°22'0 0.0
2017-Nov-10 23:58N 43°18' E 005°22'0 0.0
2017-Nov-10 23:25N 43°18' E 005°22'0 0.0
2017-Nov-10 22:58N 43°18' E 005°22'0 0.0
2017-Nov-10 22:25N 43°18' E 005°22'0 0.0
2017-Nov-10 21:55N 43°18' E 005°22'0 0.0
2017-Nov-10 21:19N 43°18' E 005°22'0 0.0
2017-Nov-10 20:55N 43°18' E 005°22'0 0.0
2017-Nov-10 20:16N 43°18' E 005°22'0 0.0
2017-Nov-10 19:55N 43°18' E 005°22'0 0.0
2017-Nov-10 19:19N 43°18' E 005°22'0 0.0
2017-Nov-10 18:49N 43°18' E 005°22'0 0.0
2017-Nov-10 18:28N 43°18' E 005°22'0 0.0
2017-Nov-10 17:52N 43°18' E 005°22'0 0.0
2017-Nov-10 17:28N 43°18' E 005°22'0 0.0
2017-Nov-10 16:55N 43°18' E 005°22'0 0.0
2017-Nov-10 16:10N 43°18' E 005°22'0 0.0
2017-Nov-10 15:46N 43°18' E 005°22'0 0.0
2017-Nov-10 15:28N 43°18' E 005°22'0 0.0
2017-Nov-10 15:01N 43°18' E 005°22'0 0.0
2017-Nov-10 14:31N 43°18' E 005°22'0 0.0
2017-Nov-10 14:00N 43°18' E 005°22'0 0.0
2017-Nov-10 13:30N 43°18' E 005°22'0 0.0
2017-Nov-10 13:00N 43°18' E 005°22'0 0.0
2017-Nov-10 12:27N 43°18' E 005°22'0 0.0
2017-Nov-10 11:57N 43°18' E 005°22'0 0.0
2017-Nov-10 11:27N 43°18' E 005°22'0 0.0
2017-Nov-10 10:51N 43°18' E 005°22'0 0.0
2017-Nov-10 10:24N 43°18' E 005°22'0 0.0
2017-Nov-10 09:57N 43°18' E 005°22'0 0.0
2017-Nov-10 09:27N 43°18' E 005°22'0 0.0
2017-Nov-10 08:54N 43°18' E 005°22'0 0.0
2017-Nov-10 08:30N 43°18' E 005°22'0 0.0
2017-Nov-10 08:00N 43°18' E 005°22'0 0.0
2017-Nov-10 07:30N 43°18' E 005°22'0 0.0
2017-Nov-10 07:00N 43°18' E 005°22'0 0.0
2017-Nov-10 06:30N 43°18' E 005°22'0 0.0
2017-Nov-10 06:00N 43°18' E 005°22'0 0.0
2017-Nov-10 05:24N 43°18' E 005°22'0 0.0
2017-Nov-10 05:00N 43°18' E 005°22'0 0.0
2017-Nov-10 04:27N 43°18' E 005°22'0 0.0
2017-Nov-10 04:00N 43°18' E 005°22'0 0.0
2017-Nov-10 03:30N 43°18' E 005°22'0 0.0
2017-Nov-10 02:57N 43°18' E 005°22'0 0.0
2017-Nov-10 02:24N 43°18' E 005°22'0 0.0
2017-Nov-10 02:00N 43°18' E 005°22'0 0.0
2017-Nov-10 01:24N 43°18' E 005°22'0 0.0
2017-Nov-10 00:57N 43°18' E 005°22'0 0.0
2017-Nov-10 00:30N 43°18' E 005°22'0 0.0
2017-Nov-09 23:48N 43°18' E 005°22'0 0.0
2017-Nov-09 23:30N 43°18' E 005°22'0 0.0
2017-Nov-09 23:00N 43°18' E 005°22'0 0.0
2017-Nov-09 22:30N 43°18' E 005°22'0 0.0
2017-Nov-09 22:00N 43°18' E 005°22'0 0.0
2017-Nov-09 21:30N 43°18' E 005°22'0 0.0
2017-Nov-09 21:00N 43°18' E 005°22'0 0.0
2017-Nov-09 20:27N 43°18' E 005°22'0 0.0
2017-Nov-09 20:00N 43°18' E 005°22'0 0.0
2017-Nov-09 19:30N 43°18' E 005°22'0 0.0
2017-Nov-09 19:00N 43°18' E 005°22'0 0.0
2017-Nov-09 18:30N 43°18' E 005°22'0 0.0
2017-Nov-09 17:48N 43°18' E 005°22'0 0.0
2017-Nov-09 17:30N 43°18' E 005°22'0 0.0
2017-Nov-09 16:57N 43°18' E 005°22'0 0.0
2017-Nov-09 16:30N 43°18' E 005°22'0 0.0
2017-Nov-09 16:00N 43°18' E 005°22'0 0.0
2017-Nov-09 15:24N 43°18' E 005°22'0 0.0
2017-Nov-09 14:54N 43°18' E 005°22'0 0.0
2017-Nov-09 14:27N 43°18' E 005°22'0 0.0
2017-Nov-09 14:00N 43°18' E 005°22'0 0.0
2017-Nov-09 13:27N 43°18' E 005°22'0 0.0
2017-Nov-09 12:48N 43°18' E 005°22'0 0.0
2017-Nov-09 12:24N 43°18' E 005°22'0 0.0
2017-Nov-09 11:57N 43°18' E 005°22'0 0.0
2017-Nov-09 11:30N 43°18' E 005°22'0 0.0
2017-Nov-09 11:00N 43°18' E 005°22'0 0.0
2017-Nov-09 10:30N 43°18' E 005°22'0 0.0
2017-Nov-09 10:00N 43°18' E 005°22'0 0.0
2017-Nov-09 09:24N 43°18' E 005°22'0 0.0
2017-Nov-09 09:00N 43°18' E 005°22'0 0.0
2017-Nov-09 08:30N 43°18' E 005°22'0 0.0
2017-Nov-09 08:00N 43°18' E 005°22'0 0.0
2017-Nov-09 07:24N 43°18' E 005°22'0 0.0
2017-Nov-09 07:00N 43°18' E 005°22'0 0.0
2017-Nov-09 06:27N 43°18' E 005°22'0 0.0
2017-Nov-09 06:00N 43°18' E 005°22'0 0.0
2017-Nov-09 05:30N 43°18' E 005°22'0 0.0
2017-Nov-09 05:00N 43°18' E 005°22'0 0.0
2017-Nov-09 04:21N 43°18' E 005°22'0 0.0
2017-Nov-09 03:59N 43°18' E 005°22'0 0.0
2017-Nov-09 03:29N 43°18' E 005°22'0 0.0
2017-Nov-09 02:56N 43°18' E 005°22'0 0.0
2017-Nov-09 02:29N 43°18' E 005°22'0 0.0
2017-Nov-09 01:59N 43°18' E 005°22'0 0.0
2017-Nov-09 01:29N 43°18' E 005°22'0 0.0
2017-Nov-09 00:59N 43°18' E 005°22'0 0.0
2017-Nov-09 00:17N 43°18' E 005°22'0 0.0
2017-Nov-08 23:59N 43°18' E 005°22'0 0.0
2017-Nov-08 23:23N 43°18' E 005°22'0 0.0
2017-Nov-08 22:56N 43°18' E 005°22'0 0.0
2017-Nov-08 22:29N 43°18' E 005°22'0 0.0
2017-Nov-08 21:56N 43°18' E 005°22'0 0.0
2017-Nov-08 21:29N 43°18' E 005°22'0 0.0
2017-Nov-08 20:59N 43°18' E 005°22'0 0.0
2017-Nov-08 20:26N 43°18' E 005°22'0 0.0
2017-Nov-08 19:59N 43°18' E 005°22'0 0.0
2017-Nov-08 19:29N 43°18' E 005°22'0 0.0
2017-Nov-08 18:59N 43°18' E 005°22'0 0.0
2017-Nov-08 18:29N 43°18' E 005°22'0 0.0
2017-Nov-08 17:53N 43°18' E 005°22'0 0.0
2017-Nov-08 17:29N 43°18' E 005°22'0 0.0
2017-Nov-08 16:59N 43°18' E 005°22'0 0.0
2017-Nov-08 16:20N 43°18' E 005°22'0 0.0
2017-Nov-08 15:59N 43°18' E 005°22'0 0.0
2017-Nov-08 15:29N 43°18' E 005°22'0 0.0
2017-Nov-08 14:59N 43°18' E 005°22'0 0.0
2017-Nov-08 14:26N 43°18' E 005°22'0 0.0
2017-Nov-08 13:56N 43°18' E 005°22'0 0.0
2017-Nov-08 13:29N 43°18' E 005°22'0 0.0
2017-Nov-08 12:59N 43°18' E 005°22'0 0.0
2017-Nov-08 12:26N 43°18' E 005°22'0 0.0
2017-Nov-08 11:59N 43°18' E 005°22'0 0.0
2017-Nov-08 11:29N 43°18' E 005°22'0 0.0
2017-Nov-08 10:59N 43°18' E 005°22'0 0.0
2017-Nov-08 10:29N 43°18' E 005°22'0 0.0
2017-Nov-08 09:59N 43°18' E 005°22'0 0.0
2017-Nov-08 09:29N 43°18' E 005°22'0 0.0
2017-Nov-08 08:05N 43°18' E 005°22'0 0.0
2017-Nov-08 07:59N 43°18' E 005°22'0 0.0
2017-Nov-08 07:29N 43°18' E 005°22'0 0.0
2017-Nov-08 06:59N 43°18' E 005°22'0 0.0
2017-Nov-08 06:29N 43°18' E 005°22'0 0.0
2017-Nov-08 05:59N 43°18' E 005°22'0 0.0
2017-Nov-08 05:29N 43°18' E 005°22'0 0.0
2017-Nov-08 04:53N 43°18' E 005°22'0 0.0
2017-Nov-08 04:29N 43°18' E 005°22'0 0.0
2017-Nov-08 03:59N 43°18' E 005°22'0 0.0
2017-Nov-08 03:29N 43°18' E 005°22'0 0.0
2017-Nov-08 02:59N 43°18' E 005°22'0 0.0
2017-Nov-08 02:29N 43°18' E 005°22'0 0.0
2017-Nov-08 01:59N 43°18' E 005°22'0 0.0
2017-Nov-08 01:23N 43°18' E 005°22'0 0.0
2017-Nov-08 00:53N 43°18' E 005°22'0 0.0
2017-Nov-08 00:23N 43°18' E 005°22'0 0.0
2017-Nov-07 23:59N 43°18' E 005°22'0 0.0
2017-Nov-07 23:29N 43°18' E 005°22'0 0.0
2017-Nov-07 22:53N 43°18' E 005°22'0 0.0
2017-Nov-07 22:29N 43°18' E 005°22'0 0.0
2017-Nov-07 21:53N 43°18' E 005°22'0 0.0
2017-Nov-07 21:05N 43°18' E 005°22'0 0.0
2017-Nov-07 20:59N 43°18' E 005°22'0 0.0
2017-Nov-07 20:29N 43°18' E 005°22'0 0.0
2017-Nov-07 19:59N 43°18' E 005°22'0 0.0
2017-Nov-07 19:29N 43°18' E 005°22'0 0.0
2017-Nov-07 18:59N 43°18' E 005°22'0 0.0
2017-Nov-07 18:29N 43°18' E 005°22'0 0.0
2017-Nov-07 17:58N 43°18' E 005°22'0 0.0
2017-Nov-07 17:28N 43°18' E 005°22'0 0.0
2017-Nov-07 16:58N 43°18' E 005°22'0 0.0
2017-Nov-07 16:28N 43°18' E 005°22'0 0.0
2017-Nov-07 15:52N 43°18' E 005°22'0 0.0
2017-Nov-07 15:22N 43°18' E 005°22'0 0.0
2017-Nov-07 14:58N 43°18' E 005°22'0 0.0
2017-Nov-07 14:22N 43°18' E 005°22'0 0.0
2017-Nov-07 13:46N 43°18' E 005°22'0 0.0
2017-Nov-07 13:16N 43°18' E 005°22'0 0.0
2017-Nov-07 12:52N 43°18' E 005°22'0 0.0
2017-Nov-07 12:28N 43°18' E 005°22'0 0.0
2017-Nov-07 11:49N 43°18' E 005°22'0 0.0
2017-Nov-07 11:22N 43°18' E 005°22'0 0.0
2017-Nov-07 10:58N 43°18' E 005°22'0 0.0
2017-Nov-07 10:28N 43°18' E 005°22'0 0.0
2017-Nov-07 09:52N 43°18' E 005°22'0 0.0
2017-Nov-07 09:16N 43°18' E 005°22'0 0.0
2017-Nov-07 08:58N 43°18' E 005°22'0 0.0
2017-Nov-07 08:25N 43°18' E 005°22'0 0.0
2017-Nov-07 07:55N 43°18' E 005°22'0 0.0
2017-Nov-07 07:28N 43°18' E 005°22'0 0.0
2017-Nov-07 06:55N 43°18' E 005°22'0 0.0
2017-Nov-07 06:28N 43°18' E 005°22'0 0.0
2017-Nov-07 05:58N 43°18' E 005°22'  

Dump ship's entire track history